Time;durP1;ratioP1;P1;durP2;ratioP2;P2;SDS_P1;SDS_P2;PMS_P1;PMS_P2;Temp;Humidity;BMP_temperature;BMP_pressure;BME280_temperature;BME280_humidity;BME280_pressure;Samples;Min_cycle;Max_cycle;Signal;HPM_P1;HPM_P2
2023/06/09 00:00:00;;;;;;;4.57;3.10;;;;;;;20.58;68.61;99261.13;5054096;28;20278;-71
2023/06/09 00:02:27;;;;;;;4.90;3.07;;;;;;;20.63;68.31;99261.97;5053855;28;20201;-71
2023/06/09 00:04:56;;;;;;;3.40;3.20;;;;;;;20.69;68.17;99265.47;5045750;28;20316;-71
2023/06/09 00:07:23;;;;;;;4.13;3.80;;;;;;;20.68;68.02;99269.28;5046085;28;20220;-71
2023/06/09 00:09:49;;;;;;;3.17;2.97;;;;;;;20.62;68.73;99262.22;5054126;28;20278;-71
2023/06/09 00:12:16;;;;;;;3.20;2.90;;;;;;;20.61;69.08;99274.09;5053792;28;20196;-70
2023/06/09 00:14:43;;;;;;;2.90;2.70;;;;;;;20.63;68.70;99268.44;5053620;28;20200;-71
2023/06/09 00:17:09;;;;;;;6.30;3.10;;;;;;;20.62;68.77;99278.41;5053475;28;20622;-71
2023/06/09 00:19:36;;;;;;;3.60;2.53;;;;;;;20.59;68.60;99270.88;5040351;28;20220;-71
2023/06/09 00:22:05;;;;;;;4.33;3.30;;;;;;;20.60;68.95;99267.09;5033773;28;20201;-71
2023/06/09 00:24:31;;;;;;;2.93;2.73;;;;;;;20.55;69.29;99265.19;5033852;28;20193;-71
2023/06/09 00:26:58;;;;;;;4.50;3.23;;;;;;;20.57;68.99;99278.41;5033742;28;20190;-70
2023/06/09 00:29:25;;;;;;;3.90;3.60;;;;;;;20.54;68.71;99268.97;5033404;28;20193;-72
2023/06/09 00:31:51;;;;;;;5.53;3.30;;;;;;;20.58;69.35;99268.44;5049127;28;20193;-72
2023/06/09 00:34:18;;;;;;;4.70;2.80;;;;;;;20.57;68.62;99270.31;5053221;28;20621;-71
2023/06/09 00:36:45;;;;;;;3.80;3.50;;;;;;;20.57;68.89;99267.63;5053587;28;20571;-71
2023/06/09 00:39:13;;;;;;;3.67;3.07;;;;;;;20.53;68.88;99255.72;5053349;28;20228;-70
2023/06/09 00:41:41;;;;;;;3.50;3.30;;;;;;;20.55;69.57;99258.97;5052967;28;20279;-72
2023/06/09 00:44:08;;;;;;;3.40;3.20;;;;;;;20.54;69.20;99260.03;5038611;28;20198;-72
2023/06/09 00:46:35;;;;;;;4.33;3.90;;;;;;;20.34;69.88;99257.31;5032740;28;20200;-73
2023/06/09 00:49:02;;;;;;;3.90;3.60;;;;;;;20.22;70.77;99256.72;5033235;28;20629;-72
2023/06/09 00:51:32;;;;;;;3.43;3.13;;;;;;;20.22;70.91;99254.03;5032868;28;20251;-73
2023/06/09 00:53:58;;;;;;;7.90;3.67;;;;;;;20.09;70.94;99259.88;5034173;28;20256;-73
2023/06/09 00:56:29;;;;;;;3.77;3.37;;;;;;;19.98;71.99;99247.41;5032959;28;20250;-73
2023/06/09 00:58:55;;;;;;;4.00;3.80;;;;;;;19.93;71.41;99260.88;5032872;28;20672;-73
2023/06/09 01:01:22;;;;;;;3.73;3.40;;;;;;;19.87;72.43;99253.81;5032635;28;20281;-73
2023/06/09 01:03:49;;;;;;;4.07;3.70;;;;;;;19.87;72.02;99257.31;5047215;28;20196;-73
2023/06/09 01:06:26;;;;;;;3.70;3.47;;;;;;;19.78;73.05;99260.78;5033306;28;20189;-73
2023/06/09 01:08:59;;;;;;;5.80;4.13;;;;;;;19.74;72.20;99256.97;5032706;28;20280;-74
2023/06/09 01:11:31;;;;;;;3.50;3.30;;;;;;;19.72;72.89;99264.50;5032995;28;20197;-73
2023/06/09 01:14:05;;;;;;;3.97;3.67;;;;;;;19.77;72.54;99254.56;5032668;28;20259;-73
2023/06/09 01:16:40;;;;;;;4.50;3.97;;;;;;;19.88;70.97;99264.34;5050789;28;20560;-74
2023/06/09 01:19:15;;;;;;;4.40;3.90;;;;;;;19.76;71.26;99265.59;5052728;28;20203;-73
2023/06/09 01:21:45;;;;;;;3.97;3.73;;;;;;;19.62;71.79;99259.06;5052755;28;20313;-73
2023/06/09 01:24:30;;;;;;;5.20;3.53;;;;;;;19.62;72.29;99262.56;5052268;28;20246;-73
2023/06/09 01:26:59;;;;;;;4.40;3.40;;;;;;;19.54;70.00;99259.53;5046418;28;20676;-73
2023/06/09 01:29:28;;;;;;;4.30;3.93;;;;;;;19.47;70.24;99272.41;5032600;28;20255;-71
2023/06/09 01:31:55;;;;;;;4.20;3.60;;;;;;;19.44;70.37;99267.56;5032179;28;20200;-71
2023/06/09 01:34:22;;;;;;;4.00;3.50;;;;;;;19.46;71.06;99265.41;5032510;28;20207;-71
2023/06/09 01:36:51;;;;;;;5.10;3.50;;;;;;;19.42;69.74;99269.69;5036326;28;20188;-72
2023/06/09 01:39:18;;;;;;;11.10;4.93;;;;;;;19.44;69.25;99272.94;5052196;28;20237;-72
2023/06/09 01:41:45;;;;;;;5.50;4.07;;;;;;;19.46;69.04;99270.78;5052194;28;20223;-71
2023/06/09 01:44:13;;;;;;;6.87;4.03;;;;;;;19.40;69.25;99278.03;5051974;28;20749;-71
2023/06/09 01:46:42;;;;;;;7.57;4.03;;;;;;;19.41;69.04;99262.69;5035420;28;20189;-71
2023/06/09 01:49:15;;;;;;;5.03;4.73;;;;;;;19.40;69.14;99274.53;5032220;28;20250;-70
2023/06/09 01:51:46;;;;;;;4.50;4.00;;;;;;;19.30;68.92;99271.75;5032359;28;20198;-72
2023/06/09 01:54:16;;;;;;;5.57;4.33;;;;;;;19.21;69.12;99265.19;5032317;28;20183;-72
2023/06/09 01:56:45;;;;;;;4.70;4.23;;;;;;;19.10;69.20;99260.78;5046823;28;20195;-69
2023/06/09 01:59:17;;;;;;;4.50;4.10;;;;;;;19.11;69.09;99262.41;5051789;28;20198;-72
2023/06/09 02:01:46;;;;;;;7.23;4.20;;;;;;;19.12;68.99;99247.88;5051958;28;20258;-71
2023/06/09 02:04:14;;;;;;;4.80;4.27;;;;;;;19.15;69.27;99258.16;5049130;28;20196;-71
2023/06/09 02:06:42;;;;;;;5.23;4.20;;;;;;;19.16;69.30;99249.00;5031454;28;20199;-71
2023/06/09 02:09:09;;;;;;;5.47;3.90;;;;;;;19.09;69.82;99257.28;5048717;28;20205;-71
2023/06/09 02:11:37;;;;;;;9.50;3.90;;;;;;;19.04;69.60;99256.44;5051628;28;20197;-72
2023/06/09 02:14:04;;;;;;;5.30;3.60;;;;;;;19.07;70.48;99258.63;5051977;28;20326;-73
2023/06/09 02:16:32;;;;;;;6.50;4.27;;;;;;;19.09;70.42;99248.38;5051993;28;20239;-74
2023/06/09 02:19:00;;;;;;;8.03;4.50;;;;;;;19.14;70.88;99256.50;5049128;28;20245;-72
2023/06/09 02:21:27;;;;;;;8.53;4.33;;;;;;;19.19;70.58;99249.28;5032109;28;20244;-73
2023/06/09 02:23:53;;;;;;;9.63;5.10;;;;;;;19.23;70.73;99250.41;5031839;28;20197;-73
2023/06/09 02:26:20;;;;;;;6.37;4.63;;;;;;;19.28;70.98;99252.34;5031574;28;20193;-73
2023/06/09 02:28:47;;;;;;;4.60;4.20;;;;;;;19.34;71.20;99248.63;5045024;28;20196;-73
2023/06/09 02:31:14;;;;;;;4.77;4.47;;;;;;;19.40;70.91;99255.69;5051839;28;20228;-73
2023/06/09 02:33:42;;;;;;;4.30;3.90;;;;;;;19.41;71.08;99252.72;5051419;28;20200;-72
2023/06/09 02:36:08;;;;;;;5.93;4.60;;;;;;;19.37;71.02;99256.19;5051438;28;20192;-72
2023/06/09 02:38:35;;;;;;;4.97;4.63;;;;;;;19.28;71.05;99257.75;5039222;28;20246;-72
2023/06/09 02:41:02;;;;;;;6.33;4.13;;;;;;;19.23;71.15;99260.34;5031745;28;20217;-73
2023/06/09 02:43:29;;;;;;;7.10;4.27;;;;;;;19.14;71.94;99251.13;5031808;28;20200;-72
2023/06/09 02:45:55;;;;;;;4.87;4.00;;;;;;;19.11;72.55;99246.25;5031419;28;20243;-73
2023/06/09 02:48:22;;;;;;;8.13;4.93;;;;;;;19.05;71.83;99252.66;5031343;28;20196;-71
2023/06/09 02:50:50;;;;;;;5.43;4.57;;;;;;;18.96;73.19;99248.81;5043216;28;20201;-74
2023/06/09 02:53:17;;;;;;;13.10;5.40;;;;;;;18.97;72.23;99255.81;5051277;28;20265;-74
2023/06/09 02:55:44;;;;;;;6.30;4.20;;;;;;;18.99;72.32;99256.38;5051285;28;20202;-74
2023/06/09 02:58:14;;;;;;;9.17;4.57;;;;;;;19.01;72.47;99257.75;5048004;28;20681;-74
2023/06/09 03:00:41;;;;;;;4.63;4.20;;;;;;;19.03;72.66;99254.81;5031620;28;20221;-74
2023/06/09 03:03:07;;;;;;;5.33;4.80;;;;;;;19.03;72.14;99257.50;5047842;28;20626;-74
2023/06/09 03:05:35;;;;;;;5.33;4.90;;;;;;;19.05;72.52;99253.47;5037971;28;20201;-74
2023/06/09 03:08:03;;;;;;;5.13;4.60;;;;;;;19.07;71.94;99256.72;5031175;28;20287;-75
2023/06/09 03:10:30;;;;;;;5.63;4.20;;;;;;;19.13;72.27;99260.28;5039770;28;20191;-74
2023/06/09 03:12:57;;;;;;;5.47;4.33;;;;;;;19.25;72.32;99258.25;5051043;28;20802;-74
2023/06/09 03:15:24;;;;;;;7.77;4.83;;;;;;;19.19;71.35;99264.63;5051035;28;20188;-74
2023/06/09 03:17:51;;;;;;;6.50;5.30;;;;;;;19.19;71.66;99262.75;5052179;28;20714;-73
2023/06/09 03:20:19;;;;;;;7.50;4.93;;;;;;;19.15;71.38;99263.53;5046835;28;20310;-72
2023/06/09 03:22:47;;;;;;;9.90;4.60;;;;;;;19.07;71.70;99261.31;5034613;28;20627;-71
2023/06/09 03:25:15;;;;;;;15.07;4.87;;;;;;;19.03;72.05;99257.50;5034597;28;20205;-72
2023/06/09 03:27:42;;;;;;;12.03;4.60;;;;;;;19.00;72.18;99258.00;5034781;28;20205;-72
2023/06/09 03:30:09;;;;;;;6.90;4.27;;;;;;;18.77;73.08;99258.31;5034516;28;20269;-71
2023/06/09 03:32:36;;;;;;;8.20;5.37;;;;;;;18.74;73.58;99256.16;5045911;28;20203;-68
2023/06/09 03:35:03;;;;;;;6.70;6.20;;;;;;;18.73;73.59;99260.72;5054306;28;20197;-67
2023/06/09 03:37:30;;;;;;;10.73;6.10;;;;;;;18.79;74.39;99253.50;5054578;28;20228;-66
2023/06/09 03:39:56;;;;;;;7.33;6.17;;;;;;;18.97;73.00;99267.41;5054671;28;20286;-67
2023/06/09 03:42:25;;;;;;;6.67;5.67;;;;;;;19.25;72.21;99271.72;5051995;28;20236;-72
2023/06/09 03:44:57;;;;;;;10.27;5.10;;;;;;;19.43;71.03;99282.06;5053243;28;20694;-70
2023/06/09 03:47:24;;;;;;;6.20;5.20;;;;;;;19.26;71.42;99278.72;5054735;28;20192;-70
2023/06/09 03:49:50;;;;;;;9.40;5.20;;;;;;;19.16;71.68;99271.31;5053989;28;20197;-72
2023/06/09 03:52:19;;;;;;;5.53;5.10;;;;;;;19.14;71.68;99278.03;5049733;28;20734;-73
2023/06/09 03:54:46;;;;;;;9.07;4.53;;;;;;;19.02;72.54;99275.53;5034187;28;20240;-73
2023/06/09 03:57:13;;;;;;;7.43;5.00;;;;;;;18.95;73.01;99271.41;5034276;28;20196;-73
2023/06/09 03:59:41;;;;;;;5.73;5.10;;;;;;;19.00;72.88;99268.78;5033869;28;20666;-72
2023/06/09 04:02:07;;;;;;;5.93;5.10;;;;;;;19.31;72.76;99267.97;5034151;28;20229;-72
2023/06/09 04:04:34;;;;;;;7.83;5.10;;;;;;;19.78;70.70;99274.25;5036184;28;20244;-70
2023/06/09 04:07:01;;;;;;;8.07;5.17;;;;;;;20.39;68.37;99277.00;5033745;28;20219;-70
2023/06/09 04:09:28;;;;;;;9.33;4.97;;;;;;;21.11;65.88;99276.91;5033692;28;20250;-69
2023/06/09 04:11:54;;;;;;;4.83;4.53;;;;;;;21.87;62.62;99277.69;5033172;28;20193;-68
2023/06/09 04:14:21;;;;;;;7.37;5.43;;;;;;;22.52;61.05;99291.84;5033038;28;20664;-68
2023/06/09 04:16:49;;;;;;;13.33;5.57;;;;;;;23.29;58.07;99285.69;5033138;28;20577;-67
2023/06/09 04:19:16;;;;;;;5.40;4.87;;;;;;;23.97;55.71;99293.50;5033381;28;20244;-66
2023/06/09 04:21:45;;;;;;;7.30;4.90;;;;;;;24.57;53.63;99292.78;5033084;28;20261;-67
2023/06/09 04:24:11;;;;;;;4.87;4.47;;;;;;;25.12;51.80;99293.13;5033161;28;20275;-68
2023/06/09 04:26:39;;;;;;;5.57;5.07;;;;;;;25.34;50.54;99291.44;5032803;28;20195;-68
2023/06/09 04:29:09;;;;;;;8.50;4.57;;;;;;;25.68;49.93;99293.84;5030240;28;20197;-72
2023/06/09 04:31:37;;;;;;;5.40;4.27;;;;;;;26.14;48.59;99300.09;5032682;28;20220;-70
2023/06/09 04:34:10;;;;;;;9.63;3.90;;;;;;;26.14;48.06;99291.94;5032689;28;20269;-70
2023/06/09 04:36:38;;;;;;;17.60;5.07;;;;;;;26.60;46.89;99289.91;5032338;28;21162;-69
2023/06/09 04:39:07;;;;;;;9.40;4.53;;;;;;;27.12;47.00;99290.06;5030034;28;20225;-67
2023/06/09 04:41:34;;;;;;;7.10;3.90;;;;;;;27.61;45.33;99287.25;5032821;28;20225;-68
2023/06/09 04:44:03;;;;;;;4.37;3.83;;;;;;;28.24;42.73;99295.16;5032552;28;20192;-70
2023/06/09 04:46:31;;;;;;;7.07;3.83;;;;;;;28.54;41.38;99288.88;5033422;28;20192;-67
2023/06/09 04:49:00;;;;;;;6.23;3.43;;;;;;;29.05;39.90;99294.41;5031968;28;20201;-68
2023/06/09 04:51:28;;;;;;;17.30;3.53;;;;;;;29.31;39.42;99297.94;5032278;28;20284;-67
2023/06/09 04:53:55;;;;;;;6.47;3.10;;;;;;;29.83;38.84;99299.50;5029589;28;20552;-67
2023/06/09 04:56:21;;;;;;;11.47;4.00;;;;;;;30.56;36.40;99301.00;5031949;28;20247;-67
2023/06/09 04:58:48;;;;;;;6.17;3.73;;;;;;;30.81;36.66;99302.81;5031306;28;20255;-66
2023/06/09 05:01:15;;;;;;;8.47;3.63;;;;;;;31.01;35.38;99300.09;5032535;28;20223;-68
2023/06/09 05:03:45;;;;;;;6.10;3.43;;;;;;;31.39;34.65;99291.72;5032510;28;20197;-67
2023/06/09 05:06:11;;;;;;;6.23;3.67;;;;;;;31.24;35.25;99295.88;5031631;28;20189;-68
2023/06/09 05:08:42;;;;;;;15.73;4.17;;;;;;;31.52;34.83;99291.41;5032311;28;20194;-68
2023/06/09 05:11:09;;;;;;;3.63;3.30;;;;;;;31.45;34.43;99296.69;5032103;28;20276;-69
2023/06/09 05:13:35;;;;;;;6.40;3.67;;;;;;;31.29;35.84;99287.44;5030578;28;20193;-68
2023/06/09 05:16:04;;;;;;;4.17;3.77;;;;;;;31.70;34.61;99298.34;5029843;28;20197;-68
2023/06/09 05:18:30;;;;;;;11.80;3.93;;;;;;;31.72;34.57;99296.06;5031057;28;20276;-69
2023/06/09 05:20:57;;;;;;;10.87;4.40;;;;;;;32.12;33.44;99299.84;5031255;28;20616;-68
2023/06/09 05:23:24;;;;;;;5.47;3.57;;;;;;;31.98;33.43;99304.88;5030581;28;20219;-67
2023/06/09 05:25:52;;;;;;;5.50;3.70;;;;;;;31.91;34.32;99301.88;5031379;28;20255;-69
2023/06/09 05:28:19;;;;;;;6.97;3.47;;;;;;;31.88;34.34;99299.78;5031165;28;20193;-68
2023/06/09 05:30:46;;;;;;;5.70;3.47;;;;;;;31.97;34.12;99294.22;5030681;28;20260;-68
2023/06/09 05:33:12;;;;;;;7.30;3.70;;;;;;;32.08;34.07;99290.66;5046658;28;20197;-71
2023/06/09 05:35:39;;;;;;;11.37;3.73;;;;;;;32.17;33.22;99296.06;5031603;28;20201;-68
2023/06/09 05:38:06;;;;;;;5.33;3.03;;;;;;;32.65;32.28;99299.66;5029616;28;20194;-71
2023/06/09 05:40:33;;;;;;;8.33;3.07;;;;;;;32.54;32.95;99292.22;5028936;28;20232;-70
2023/06/09 05:43:01;;;;;;;8.63;3.53;;;;;;;32.44;33.06;99290.72;5028422;28;20738;-72
2023/06/09 05:45:28;;;;;;;7.43;4.10;;;;;;;32.36;32.60;99299.88;5029229;28;20236;-72
2023/06/09 05:47:54;;;;;;;16.40;4.23;;;;;;;32.21;32.99;99297.78;5028775;28;20197;-70
2023/06/09 05:50:21;;;;;;;7.83;3.50;;;;;;;32.00;33.65;99297.06;5034649;28;20192;-69
2023/06/09 05:52:48;;;;;;;12.10;3.80;;;;;;;32.09;33.73;99295.03;5048914;28;20204;-69
2023/06/09 05:55:16;;;;;;;11.40;3.70;;;;;;;32.03;33.87;99296.41;5038046;28;20266;-71
2023/06/09 05:57:44;;;;;;;16.27;3.67;;;;;;;31.88;34.39;99288.81;5030530;28;20259;-72
2023/06/09 06:00:14;;;;;;;7.50;3.37;;;;;;;31.85;34.37;99292.22;5033123;28;20254;-70
2023/06/09 06:02:42;;;;;;;6.10;3.27;;;;;;;31.69;34.10;99290.44;5033948;28;20213;-69
2023/06/09 06:05:10;;;;;;;10.07;3.03;;;;;;;31.63;35.04;99291.78;5029056;28;20193;-71
2023/06/09 06:07:37;;;;;;;5.33;4.23;;;;;;;31.74;33.56;99299.28;5031089;28;20215;-71
2023/06/09 06:10:04;;;;;;;10.13;3.73;;;;;;;31.58;34.60;99294.75;5030783;28;20197;-71
2023/06/09 06:12:31;;;;;;;20.73;4.30;;;;;;;31.55;34.15;99290.75;5031149;28;20215;-68
2023/06/09 06:14:58;;;;;;;10.57;4.33;;;;;;;31.37;34.43;99278.34;5030214;28;20194;-73
2023/06/09 06:17:26;;;;;;;18.87;3.67;;;;;;;31.26;35.20;99288.13;5029283;28;20738;-72
2023/06/09 06:19:53;;;;;;;6.23;3.27;;;;;;;31.21;35.12;99285.56;5029065;28;20264;-74
2023/06/09 06:22:20;;;;;;;5.60;3.40;;;;;;;31.04;35.64;99285.69;5029963;28;20217;-72
2023/06/09 06:24:46;;;;;;;4.70;3.10;;;;;;;31.21;35.59;99274.56;5029151;28;20251;-76
2023/06/09 06:27:13;;;;;;;6.43;3.67;;;;;;;31.01;35.82;99277.31;5040339;28;20661;-71
2023/06/09 06:29:40;;;;;;;9.17;3.17;;;;;;;31.04;36.13;99263.75;5050431;28;20673;-73
2023/06/09 06:32:08;;;;;;;11.90;3.53;;;;;;;31.39;35.50;99270.53;5049332;28;20192;-74
2023/06/09 06:34:36;;;;;;;22.90;4.23;;;;;;;31.63;35.02;99276.13;5036687;28;20568;-73
2023/06/09 06:37:03;;;;;;;9.83;3.63;;;;;;;31.19;35.24;99271.34;5030487;28;20185;-71
2023/06/09 06:39:30;;;;;;;4.77;3.30;;;;;;;30.95;35.89;99276.72;5029813;28;20229;-72
2023/06/09 06:41:57;;;;;;;5.90;3.23;;;;;;;30.60;36.92;99269.84;5031198;28;20213;-70
2023/06/09 06:44:23;;;;;;;8.50;3.47;;;;;;;30.78;37.26;99263.13;5030531;28;20270;-69
2023/06/09 06:46:50;;;;;;;6.13;3.87;;;;;;;31.16;36.00;99269.28;5030623;28;20193;-71
2023/06/09 06:49:17;;;;;;;3.27;2.70;;;;;;;30.84;36.49;99258.25;5030504;28;20193;-69
2023/06/09 06:51:45;;;;;;;13.40;4.00;;;;;;;31.03;36.73;99267.59;5030224;28;20628;-70
2023/06/09 06:54:11;;;;;;;9.10;3.67;;;;;;;31.00;35.16;99273.78;5033530;28;20689;-69
2023/06/09 06:56:38;;;;;;;5.30;3.40;;;;;;;29.70;36.95;99262.16;5034442;28;20197;-72
2023/06/09 06:59:05;;;;;;;6.13;4.13;;;;;;;29.24;38.86;99251.13;5041033;28;20201;-73
2023/06/09 07:01:33;;;;;;;4.47;3.53;;;;;;;29.89;37.44;99242.63;5053359;28;20198;-71
2023/06/09 07:04:00;;;;;;;5.73;2.73;;;;;;;30.32;37.98;99252.25;5053254;28;20189;-72
2023/06/09 07:06:27;;;;;;;10.90;4.03;;;;;;;30.75;36.15;99250.09;5034207;28;20378;-71
2023/06/09 07:08:56;;;;;;;5.50;3.20;;;;;;;30.93;36.25;99234.28;5033953;28;20749;-72
2023/06/09 07:11:23;;;;;;;14.77;3.53;;;;;;;31.29;36.17;99249.00;5033818;28;20197;-71
2023/06/09 07:13:51;;;;;;;7.93;2.80;;;;;;;31.49;36.26;99242.69;5034447;28;20193;-69
2023/06/09 07:16:18;;;;;;;7.67;3.30;;;;;;;31.38;34.38;99249.72;5042189;28;20193;-70
2023/06/09 07:18:44;;;;;;;5.27;3.20;;;;;;;31.34;34.26;99246.06;5033270;28;20558;-69
2023/06/09 07:21:12;;;;;;;11.60;3.40;;;;;;;31.31;34.80;99245.94;5031685;28;20194;-73
2023/06/09 07:23:38;;;;;;;11.63;3.50;;;;;;;31.33;34.63;99246.38;5032339;28;20237;-72
2023/06/09 07:26:06;;;;;;;4.33;2.87;;;;;;;31.23;33.10;99247.59;5031915;28;20201;-73
2023/06/09 07:28:33;;;;;;;3.97;3.40;;;;;;;30.77;34.13;99236.84;5030826;28;20225;-74
2023/06/09 07:31:00;;;;;;;3.43;3.13;;;;;;;30.85;33.63;99233.22;5030036;28;20270;-75
2023/06/09 07:33:32;;;;;;;3.93;3.40;;;;;;;30.74;33.65;99232.00;5032634;28;20689;-71
2023/06/09 07:35:59;;;;;;;6.67;3.00;;;;;;;31.00;33.35;99246.34;5046975;28;20184;-72
2023/06/09 07:38:27;;;;;;;5.90;3.60;;;;;;;31.10;34.30;99234.94;5025029;28;20216;-72
2023/06/09 07:40:54;;;;;;;6.87;3.77;;;;;;;31.27;35.27;99240.31;5032575;28;20208;-72
2023/06/09 07:43:22;;;;;;;3.23;2.93;;;;;;;31.23;34.46;99233.88;5032489;28;20216;-71
2023/06/09 07:45:49;;;;;;;8.87;3.73;;;;;;;31.43;33.29;99232.22;5031914;28;20749;-70
2023/06/09 07:48:16;;;;;;;7.87;3.60;;;;;;;31.57;33.79;99233.53;5029629;28;20189;-73
2023/06/09 07:50:43;;;;;;;8.93;3.40;;;;;;;31.71;33.78;99234.03;5031994;28;20197;-72
2023/06/09 07:53:09;;;;;;;6.57;3.03;;;;;;;31.88;33.71;99233.84;5032485;28;20641;-70
2023/06/09 07:55:36;;;;;;;4.00;3.13;;;;;;;31.95;33.26;99234.09;5028786;28;20315;-74
2023/06/09 07:58:03;;;;;;;3.97;3.23;;;;;;;31.68;35.62;99228.41;5031684;28;20189;-72
2023/06/09 08:00:31;;;;;;;8.53;3.70;;;;;;;31.91;32.99;99243.34;5032391;28;20197;-73
2023/06/09 08:03:01;;;;;;;7.63;3.40;;;;;;;32.07;32.24;99242.34;5027771;28;20221;-72
2023/06/09 08:05:28;;;;;;;6.27;2.87;;;;;;;32.22;31.93;99233.38;5028645;28;20626;-71
2023/06/09 08:07:55;;;;;;;5.47;3.27;;;;;;;31.78;32.06;99239.81;5030711;28;20474;-72
2023/06/09 08:10:21;;;;;;;5.07;3.03;;;;;;;31.61;32.48;99228.94;5029586;28;20197;-68
2023/06/09 08:12:49;;;;;;;7.43;3.50;;;;;;;30.77;33.55;99230.53;5027374;28;20704;-71
2023/06/09 08:15:16;;;;;;;8.23;3.70;;;;;;;31.03;33.34;99228.41;5029177;28;20251;-70
2023/06/09 08:17:44;;;;;;;6.40;3.10;;;;;;;31.19;35.41;99238.41;5028888;28;20666;-71
2023/06/09 08:20:12;;;;;;;5.40;3.50;;;;;;;31.59;34.91;99231.25;5029454;28;20256;-72
2023/06/09 08:22:38;;;;;;;19.97;6.23;;;;;;;31.67;33.23;99232.28;5029729;28;20214;-70
2023/06/09 08:25:06;;;;;;;6.13;3.57;;;;;;;31.67;33.04;99227.59;5030335;28;20197;-72
2023/06/09 08:27:33;;;;;;;6.57;3.33;;;;;;;31.69;32.48;99230.78;5030204;28;20205;-71
2023/06/09 08:29:59;;;;;;;5.60;3.40;;;;;;;31.61;32.54;99230.91;5030007;28;20243;-73
2023/06/09 08:32:26;;;;;;;3.77;3.47;;;;;;;31.37;33.29;99234.41;5028667;28;20193;-71
2023/06/09 08:34:55;;;;;;;3.97;3.27;;;;;;;31.22;34.04;99215.78;5030855;28;20256;-73
2023/06/09 08:37:24;;;;;;;3.63;3.33;;;;;;;31.36;32.87;99216.31;5030629;28;20209;-72
2023/06/09 08:39:54;;;;;;;3.53;3.23;;;;;;;31.46;33.17;99221.38;5031709;28;20351;-74
2023/06/09 08:42:22;;;;;;;6.13;3.40;;;;;;;30.46;34.51;99214.44;5031176;28;20303;-71
2023/06/09 08:44:51;;;;;;;5.70;4.10;;;;;;;30.72;34.11;99211.53;5032403;28;20228;-76
2023/06/09 08:47:21;;;;;;;9.70;3.70;;;;;;;30.82;33.85;99205.66;5031047;28;20288;-74
2023/06/09 08:49:49;;;;;;;5.97;3.73;;;;;;;30.29;35.01;99203.59;5031473;28;20212;-71
2023/06/09 08:52:17;;;;;;;4.20;3.23;;;;;;;30.74;34.99;99201.84;5031662;28;20284;-70
2023/06/09 08:54:46;;;;;;;6.93;3.80;;;;;;;31.10;34.11;99202.00;5031095;28;20712;-72
2023/06/09 08:57:13;;;;;;;6.50;3.53;;;;;;;30.90;34.44;99197.34;5031310;28;20197;-71
2023/06/09 08:59:41;;;;;;;5.63;3.97;;;;;;;31.17;34.06;99196.78;5031307;28;20199;-72
2023/06/09 09:02:10;;;;;;;12.33;4.47;;;;;;;31.15;34.16;99193.56;5031926;28;20625;-72
2023/06/09 09:04:38;;;;;;;10.50;4.47;;;;;;;31.10;33.76;99198.44;5031458;28;20276;-76
2023/06/09 09:07:08;;;;;;;4.67;4.10;;;;;;;30.67;35.42;99196.06;5031808;28;20251;-73
2023/06/09 09:09:36;;;;;;;5.30;4.33;;;;;;;30.57;35.21;99193.72;5031539;28;20220;-70
2023/06/09 09:12:04;;;;;;;5.40;4.20;;;;;;;30.51;35.47;99189.59;5029969;28;20197;-70
2023/06/09 09:14:30;;;;;;;4.60;4.17;;;;;;;30.76;35.21;99183.13;5030503;28;20197;-72
2023/06/09 09:16:57;;;;;;;4.30;4.00;;;;;;;30.45;36.10;99174.44;5029632;28;20243;-73
2023/06/09 09:19:28;;;;;;;11.40;4.23;;;;;;;30.73;34.79;99180.22;5032781;28;20193;-75
2023/06/09 09:21:55;;;;;;;4.80;4.33;;;;;;;30.96;34.51;99187.78;5031659;28;20185;-74
2023/06/09 09:24:29;;;;;;;9.60;4.40;;;;;;;31.24;33.59;99183.31;5029851;28;20300;-74
2023/06/09 09:26:57;;;;;;;7.93;4.47;;;;;;;31.08;33.44;99176.03;5030530;28;20189;-74
2023/06/09 09:29:27;;;;;;;3.90;3.60;;;;;;;30.98;33.98;99174.53;5029915;28;20193;-80
2023/06/09 09:31:58;;;;;;;4.83;4.13;;;;;;;30.69;34.23;99155.41;5031519;28;20196;-78
2023/06/09 09:34:26;;;;;;;13.93;4.40;;;;;;;30.61;34.35;99156.25;5030779;28;20255;-74
2023/06/09 09:36:54;;;;;;;12.10;5.57;;;;;;;29.84;35.87;99164.16;5049503;28;20240;-72
2023/06/09 09:39:21;;;;;;;8.43;4.17;;;;;;;30.33;34.73;99155.19;5045820;28;20724;-68
2023/06/09 09:42:04;;;;;;;8.30;5.10;;;;;;;29.28;37.16;99151.63;5028520;28;20568;-68
2023/06/09 09:44:36;;;;;;;6.27;4.60;;;;;;;29.79;37.08;99155.31;5043804;28;20212;-69
2023/06/09 09:47:05;;;;;;;5.77;4.30;;;;;;;30.12;36.59;99159.00;5049633;28;20840;-70
2023/06/09 09:49:31;;;;;;;4.03;3.67;;;;;;;30.24;35.21;99156.38;5049696;28;20196;-68
2023/06/09 09:51:58;;;;;;;5.03;4.27;;;;;;;30.25;34.90;99142.34;5050447;28;20622;-70
2023/06/09 09:54:27;;;;;;;6.30;4.23;;;;;;;30.37;35.28;99147.91;5049711;28;20738;-69
2023/06/09 09:56:55;;;;;;;5.33;4.10;;;;;;;30.68;34.76;99150.25;5051140;28;20197;-69
2023/06/09 09:59:25;;;;;;;6.83;4.23;;;;;;;30.84;34.90;99146.59;5035479;28;20735;-69
2023/06/09 10:01:54;;;;;;;5.83;4.57;;;;;;;30.55;35.24;99141.16;5029554;28;20200;-68
2023/06/09 10:04:23;;;;;;;5.17;4.33;;;;;;;30.72;35.13;99140.22;5028705;28;20279;-69
2023/06/09 10:06:54;;;;;;;7.70;4.83;;;;;;;30.78;34.45;99147.91;5028982;28;20557;-71
2023/06/09 10:09:22;;;;;;;4.67;4.37;;;;;;;30.72;34.25;99149.28;5029436;28;20273;-71
2023/06/09 10:11:51;;;;;;;5.13;4.73;;;;;;;30.93;34.58;99152.78;5039449;28;20573;-70
2023/06/09 10:14:19;;;;;;;8.90;5.13;;;;;;;31.22;34.15;99146.34;5048319;28;20197;-71
2023/06/09 10:16:49;;;;;;;10.00;6.00;;;;;;;31.33;33.31;99144.81;5050208;28;20576;-72
2023/06/09 10:19:18;;;;;;;11.00;6.73;;;;;;;31.64;34.51;99147.84;5036111;28;20197;-69
2023/06/09 10:21:49;;;;;;;10.57;6.67;;;;;;;31.88;34.06;99137.66;5033533;28;20197;-71
2023/06/09 10:24:19;;;;;;;11.30;6.17;;;;;;;32.18;32.92;99133.50;5029428;28;20225;-71
2023/06/09 10:26:47;;;;;;;4.90;4.60;;;;;;;31.89;32.26;99131.03;5029215;28;20250;-70
2023/06/09 10:29:14;;;;;;;6.23;4.70;;;;;;;31.61;33.32;99132.81;5033361;28;20276;-71
2023/06/09 10:31:45;;;;;;;5.80;4.50;;;;;;;31.86;32.91;99125.41;5035078;28;20200;-70
2023/06/09 10:34:15;;;;;;;5.27;4.47;;;;;;;32.06;32.87;99125.28;5033956;28;20681;-69
2023/06/09 10:36:42;;;;;;;4.50;4.20;;;;;;;32.02;32.91;99118.09;5034373;28;20181;-68
2023/06/09 10:39:17;;;;;;;4.50;4.13;;;;;;;31.66;34.28;99080.41;5034076;28;20229;-68
2023/06/09 10:41:53;;;;;;;6.67;4.30;;;;;;;31.65;33.67;99122.75;5033856;28;20181;-67
2023/06/09 10:44:35;;;;;;;4.80;4.17;;;;;;;31.58;33.26;99111.53;5033730;28;20615;-70
2023/06/09 10:47:02;;;;;;;5.97;4.07;;;;;;;31.56;33.10;99107.53;5027318;28;20205;-69
2023/06/09 10:49:43;;;;;;;4.63;4.23;;;;;;;31.82;32.48;99106.09;5030804;28;20232;-69
2023/06/09 10:52:48;;;;;;;4.03;3.77;;;;;;;32.05;32.72;99107.19;5033553;28;20272;-69
2023/06/09 10:55:16;;;;;;;4.13;3.63;;;;;;;32.17;32.52;99093.41;5033195;28;20193;-68
2023/06/09 10:57:43;;;;;;;5.20;4.07;;;;;;;32.15;32.77;99092.97;5034203;28;20258;-69
2023/06/09 11:00:16;;;;;;;5.33;4.17;;;;;;;32.22;32.88;99084.13;5033700;28;20229;-69
2023/06/09 11:02:47;;;;;;;4.53;3.97;;;;;;;32.26;32.29;99087.78;5034532;28;20182;-69
2023/06/09 11:05:16;;;;;;;5.70;4.10;;;;;;;32.39;32.38;99095.69;5033975;28;20201;-70
2023/06/09 11:07:46;;;;;;;5.20;3.70;;;;;;;32.56;31.77;99089.91;5033955;28;20632;-68
2023/06/09 11:10:26;;;;;;;5.57;3.88;;;;;;;32.26;32.08;99091.31;5033878;28;20185;-69
2023/06/09 11:12:53;;;;;;;3.70;3.40;;;;;;;32.28;32.08;99083.53;5034386;28;20192;-70
2023/06/09 11:15:21;;;;;;;4.83;3.80;;;;;;;32.43;32.36;99085.59;5033180;28;20269;-69
2023/06/09 11:17:49;;;;;;;4.77;3.47;;;;;;;32.45;32.70;99088.78;5032436;28;20194;-68
2023/06/09 11:20:19;;;;;;;6.90;3.90;;;;;;;32.57;31.90;99086.00;5045971;28;20196;-69
2023/06/09 11:23:03;;;;;;;3.73;3.43;;;;;;;32.56;31.68;99084.41;5052700;28;20188;-69
2023/06/09 11:25:38;;;;;;;6.65;3.50;;;;;;;32.60;32.04;99076.25;5032190;28;20197;-69
2023/06/09 11:28:21;;;;;;;4.10;3.33;;;;;;;32.53;31.99;99074.09;5033091;28;20266;-69
2023/06/09 11:31:03;;;;;;;3.95;3.55;;;;;;;32.40;31.81;99069.78;5033641;28;20251;-68
2023/06/09 11:33:45;;;;;;;6.73;3.77;;;;;;;32.37;32.33;99070.47;5037773;28;20197;-70
2023/06/09 11:36:18;;;;;;;9.32;4.15;;;;;;;32.43;32.29;99069.09;5052445;28;20279;-68